Wind From: 11-12-2017 07:30 Until: 12-12-2017 06:00 warning for: Wind Level: Orange info button

Power and phone distribution networks may be disrupted for relatively long periods., Roofs and chimneys can be damaged. , Tree branches may break. , Vehicles can be deported. , Traffic may be disrupted, particularly on secondary roads in forest areas. Limit your trips. , Limit your speed in highway driving, especially if you drive a vehicle or hitch sensitive to wind. , Do not go for walks in forests or along the coast., In town, be vigilant against possible falling objects., Do not work on roofs and do not touch any electrical line fallen on the ground., Store or secure sensitive objects to wind or likely to be damaged., Always install power generators outside buildings. 


Meteo18 Weather Cam more information Meteo18 Weather Cam


Thunder radar more information blitzortung!


Rain radar more information rain snow radar


Visit our other weather sites:

Template documentation
and downloads

And another site



Weather Underground History page Text

Daily Summary for July 21, 2017 Units:  English    Metric   Both
« Previous Day
Next Day »
Daily Weekly Monthly Yearly Custom
  High: Low: Average:
Temperature: 74.5 °F 50.7 °F 64.6 °F
Dew Point: 56.5 °F 47.8 °F 52.9 °F
Humidity: 90 % 49 % 68 %
Wind Speed: 17 mph 0 mph 3.2 mph
Wind Gust: 17 mph - -
Wind:- - SSW
Pressure: 30 in 29.9 in -
Precipitation: 0 in    
Historical Graphs
 
 
Tabular Data for July 21, 2017
Time Temperature Dew Point Pressure Wind Wind Speed Wind Gust Humidity Rainfall Rate (Hourly)
00:07 59 °F 53.2 °F 30 in Calm   2 mph 81 % 0 in
00:12 59.2 °F 53.4 °F 30 in Calm   2 mph 81 % 0 in
00:17 59.4 °F 53.2 °F 30 in Calm   2 mph 80 % 0 in
00:22 59.5 °F 53.4 °F 30 in Calm   1 mph 80 % 0 in
00:27 59.4 °F 53.2 °F 30 in Calm   1 mph 80 % 0 in
00:32 59.4 °F 53.6 °F 30 in Calm     81 % 0 in
00:37 59.2 °F 53.4 °F 30 in Calm     81 % 0 in
00:42 59.2 °F 53.4 °F 30 in Calm     81 % 0 in
00:47 59.4 °F 53.6 °F 30 in Calm     81 % 0 in
00:52 59.2 °F 53.4 °F 30 in Calm     81 % 0 in
01:02 58.6 °F 53.2 °F 30 in Calm   1 mph 82 % 0 in
01:07 58.5 °F 53.2 °F 30 in Calm   2 mph 83 % 0 in
01:12 58.6 °F 53.2 °F 30 in Calm   2 mph 82 % 0 in
01:17 58.6 °F 53.2 °F 30 in Calm   1 mph 82 % 0 in
01:22 58.6 °F 53.2 °F 30 in Calm   1 mph 82 % 0 in
01:27 58.6 °F 53.2 °F 30 in Calm   1 mph 82 % 0 in
01:32 58.6 °F 53.2 °F 30 in Calm   1 mph 82 % 0 in
01:37 58.5 °F 53.1 °F 30 in Calm   1 mph 82 % 0 in
01:42 58.5 °F 53.2 °F 30 in Calm   1 mph 83 % 0 in
01:47 58.3 °F 52.9 °F 30 in Calm     82 % 0 in
01:52 58.3 °F 53.1 °F 30 in Calm     83 % 0 in
01:57 57.9 °F 52.7 °F 30 in Calm     83 % 0 in
02:02 57.7 °F 52.7 °F 30 in Calm     83 % 0 in
02:07 57.7 °F 52.9 °F 30 in Calm     84 % 0 in
02:12 57.7 °F 52.7 °F 30 in Calm     83 % 0 in
02:17 57.7 °F 52.7 °F 30 in Calm     83 % 0 in
02:22 57.4 °F 52.3 °F 30 in Calm     83 % 0 in
02:27 56.8 °F 51.8 °F 30 in Calm     83 % 0 in
02:32 57 °F 52 °F 30 in SW 3 mph   83 % 0 in
02:37 58.3 °F 52.2 °F 30 in SW 2 mph 5 mph 80 % 0 in
02:42 58.5 °F 52 °F 30 in SW 1 mph 5 mph 79 % 0 in
02:52 58.3 °F 51.8 °F 30 in Calm   6 mph 79 % 0 in
03:02 57.7 °F 51.6 °F 30 in NNW 1 mph 1 mph 80 % 0 in
03:12 55.9 °F 50.9 °F 30 in NNE 3 mph 3 mph 83 % 0 in
03:22 55.6 °F 51.4 °F 30 in NNE 1 mph 4 mph 86 % 0 in
03:27 55.8 °F 51.6 °F 30 in Calm   3 mph 86 % 0 in
03:32 55.9 °F 51.8 °F 30 in Calm   3 mph 86 % 0 in
03:42 55.9 °F 51.8 °F 30 in SW 1 mph 2 mph 86 % 0 in
03:47 55.9 °F 51.4 °F 30 in Calm   1 mph 85 % 0 in
03:52 55.9 °F 51.4 °F 30 in Calm   1 mph 85 % 0 in
03:57 55.8 °F 51.3 °F 30 in Calm   1 mph 85 % 0 in
04:02 55.9 °F 51.4 °F 30 in SE 2 mph 2 mph 85 % 0 in
04:07 55.9 °F 51.3 °F 30 in Calm   2 mph 84 % 0 in
04:12 55.2 °F 50.7 °F 30 in Calm   2 mph 85 % 0 in
04:17 55 °F 50.5 °F 30 in Calm   2 mph 85 % 0 in
04:22 55 °F 50.5 °F 30 in Calm   2 mph 85 % 0 in
04:32 54.9 °F 50.4 °F 30 in Calm   1 mph 85 % 0 in
04:42 54.3 °F 50.2 °F 30 in Calm     86 % 0 in
04:47 54.1 °F 50 °F 30 in Calm   1 mph 86 % 0 in
04:52 53.6 °F 49.5 °F 30 in SSE 1 mph 1 mph 86 % 0 in
04:57 53.1 °F 49.3 °F 30 in SE 1 mph 2 mph 87 % 0 in
05:02 52.5 °F 49.1 °F 30 in Calm   2 mph 88 % 0 in
05:12 52.3 °F 49.3 °F 30 in Calm   3 mph 89 % 0 in
05:17 52.2 °F 49.1 °F 30 in SE 1 mph 3 mph 89 % 0 in
05:22 52 °F 48.9 °F 30 in SE 1 mph 3 mph 89 % 0 in
05:32 51.8 °F 48.7 °F 30 in Calm   2 mph 89 % 0 in
05:37 51.8 °F 48.9 °F 30 in Calm   2 mph 90 % 0 in
05:42 51.8 °F 48.9 °F 30 in Calm   2 mph 90 % 0 in
05:52 51.6 °F 48.6 °F 30 in Calm   1 mph 89 % 0 in
05:57 51.6 °F 48.7 °F 30 in Calm   1 mph 90 % 0 in
06:07 51.6 °F 48.7 °F 30 in Calm   1 mph 90 % 0 in
06:12 51.6 °F 48.7 °F 30 in Calm   1 mph 90 % 0 in
06:17 51.8 °F 48.9 °F 30 in Calm   1 mph 90 % 0 in
06:22 51.6 °F 48.6 °F 30 in Calm   1 mph 89 % 0 in
06:32 51.1 °F 48 °F 30 in Calm   1 mph 89 % 0 in
06:42 50.7 °F 47.8 °F 30 in Calm   1 mph 90 % 0 in
06:47 51.1 °F 48.2 °F 30 in Calm     90 % 0 in
06:52 51.3 °F 48.4 °F 30 in Calm     90 % 0 in
06:57 51.6 °F 48.6 °F 30 in Calm     89 % 0 in
07:02 51.8 °F 48.4 °F 30 in Calm     88 % 0 in
07:12 52.5 °F 49.1 °F 30 in Calm     88 % 0 in
07:17 52.5 °F 48.7 °F 30 in SSW 1 mph 1 mph 87 % 0 in
07:22 52.9 °F 49.1 °F 30 in SSW 1 mph 1 mph 87 % 0 in
07:32 53.6 °F 49.5 °F 30 in SSW 2 mph 3 mph 86 % 0 in
07:42 54.3 °F 50.5 °F 30 in SSE 1 mph 3 mph 87 % 0 in
07:47 55.2 °F 51.1 °F 30 in Calm   3 mph 86 % 0 in
07:52 55.8 °F 51.3 °F 30 in SSW 3 mph 3 mph 85 % 0 in
07:57 55.9 °F 51.3 °F 30 in SSE 1 mph 3 mph 84 % 0 in
08:02 56.5 °F 51.4 °F 30 in Calm   3 mph 83 % 0 in
08:12 57 °F 51.3 °F 30 in SSW 4 mph 4 mph 81 % 0 in
08:17 57 °F 51.3 °F 30 in SW 2 mph 4 mph 81 % 0 in
08:22 57 °F 51.3 °F 30 in SW 2 mph 4 mph 81 % 0 in
08:32 57.7 °F 51.6 °F 30 in SW 1 mph 5 mph 80 % 0 in
08:42 58.5 °F 51.6 °F 30 in SW 1 mph 5 mph 78 % 0 in
08:52 59.2 °F 51.6 °F 30 in Calm   4 mph 76 % 0 in
09:02 60.1 °F 52.2 °F 30 in SW 2 mph 4 mph 75 % 0 in
09:07 60.1 °F 51.8 °F 30 in SW 5 mph 5 mph 74 % 0 in
09:12 59.7 °F 51.8 °F 30 in SSE 3 mph 4 mph 75 % 0 in
09:17 59.9 °F 51.6 °F 30 in SSW 2 mph 6 mph 74 % 0 in
09:22 60.4 °F 52.5 °F 30 in SSW 2 mph 6 mph 75 % 0 in
09:32 60.6 °F 51.6 °F 30 in SSW 1 mph 6 mph 72 % 0 in
09:42 61.5 °F 52.3 °F 30 in SW 3 mph 5 mph 72 % 0 in
09:52 62.6 °F 52.3 °F 30 in SSW 2 mph 5 mph 69 % 0 in
09:57 63.1 °F 52.9 °F 30 in SW 5 mph 5 mph 69 % 0 in
10:02 63 °F 52.2 °F 30 in WSW 2 mph 5 mph 68 % 0 in
10:12 63.9 °F 52.3 °F 30 in SW 3 mph 6 mph 66 % 0 in
10:17 64 °F 52.5 °F 30 in SW 1 mph 5 mph 66 % 0 in
10:22 64.2 °F 51.8 °F 30 in SW 1 mph 5 mph 64 % 0 in
10:32 64.8 °F 51.1 °F 30 in ESE 1 mph 5 mph 61 % 0 in
10:42 64.8 °F 51.1 °F 30 in WSW 3 mph 4 mph 61 % 0 in
10:52 64.9 °F 51.1 °F 30 in SW 2 mph 9 mph 61 % 0 in
11:02 64.8 °F 51.1 °F 30 in SW 4 mph 8 mph 61 % 0 in
11:12 65.7 °F 50.5 °F 30 in WSW 5 mph 8 mph 58 % 0 in
11:17 65.5 °F 50.4 °F 30 in WSW 3 mph 7 mph 58 % 0 in
11:22 65.7 °F 50.9 °F 30 in WSW 1 mph 7 mph 59 % 0 in
11:32 66.4 °F 50.2 °F 30 in SSW 4 mph 8 mph 56 % 0 in
11:42 66.7 °F 50.5 °F 30 in SW 3 mph 7 mph 56 % 0 in
11:47 67.1 °F 50.4 °F 30 in WSW 2 mph 7 mph 55 % 0 in
11:52 67.5 °F 50.7 °F 30 in South 4 mph 7 mph 55 % 0 in
12:02 67.1 °F 51.4 °F 30 in SSW 3 mph 6 mph 57 % 0 in
12:12 67.8 °F 51.1 °F 30 in Calm   9 mph 55 % 0 in
12:17 68.4 °F 51.6 °F 30 in SW 4 mph 10 mph 55 % 0 in
12:22 68.9 °F 52.5 °F 30 in SW 4 mph 10 mph 56 % 0 in
12:32 69.6 °F 51.8 °F 30 in SSW 4 mph 8 mph 53 % 0 in
12:42 70 °F 52 °F 30 in South 2 mph 10 mph 53 % 0 in
12:47 69.8 °F 52.3 °F 30 in WSW 6 mph 12 mph 54 % 0 in
12:52 69.8 °F 52.3 °F 29.9 in SSW 5 mph 12 mph 54 % 0 in
12:57 70.3 °F 52.9 °F 29.9 in West 8 mph 12 mph 54 % 0 in
13:02 70.5 °F 52.5 °F 30 in West 5 mph 12 mph 53 % 0 in
13:12 71.2 °F 52.7 °F 29.9 in WSW 12 mph 13 mph 52 % 0 in
13:17 71.2 °F 52.7 °F 29.9 in SSW 6 mph 14 mph 52 % 0 in
13:22 71.4 °F 51.8 °F 29.9 in SSE 2 mph 14 mph 50 % 0 in
13:32 71.6 °F 52.5 °F 29.9 in West 7 mph 14 mph 51 % 0 in
13:42 72.3 °F 53.2 °F 29.9 in SW 5 mph 13 mph 51 % 0 in
13:47 72.3 °F 52.7 °F 29.9 in SSW 8 mph 13 mph 50 % 0 in
13:52 72.7 °F 52.9 °F 29.9 in SW 7 mph 13 mph 50 % 0 in
14:02 72.3 °F 53.2 °F 29.9 in SW 4 mph 14 mph 51 % 0 in
14:07 72.5 °F 53.4 °F 29.9 in SW 6 mph 14 mph 51 % 0 in
14:12 73 °F 53.8 °F 29.9 in SW 8 mph 14 mph 51 % 0 in
14:22 72.9 °F 53.1 °F 29.9 in South 5 mph 15 mph 50 % 0 in
14:32 73.6 °F 54.3 °F 29.9 in SW 6 mph 15 mph 51 % 0 in
14:37 73.2 °F 52.9 °F 29.9 in SW 9 mph 16 mph 49 % 0 in
14:42 73 °F 53.2 °F 29.9 in WSW 8 mph 16 mph 50 % 0 in
14:52 72.9 °F 53.1 °F 29.9 in WSW 11 mph 16 mph 50 % 0 in
14:57 73 °F 53.8 °F 29.9 in West 6 mph 13 mph 51 % 0 in
15:02 73 °F 52.7 °F 29.9 in ESE 8 mph 13 mph 49 % 0 in
15:12 72.9 °F 53.6 °F 29.9 in West 8 mph 15 mph 51 % 0 in
15:17 73 °F 53.2 °F 29.9 in WSW 8 mph 14 mph 50 % 0 in
15:22 73.2 °F 53.4 °F 29.9 in SW 6 mph 14 mph 50 % 0 in
15:27 73.2 °F 54 °F 29.9 in SSW 5 mph 15 mph 51 % 0 in
15:32 73.6 °F 53.8 °F 29.9 in SW 6 mph 15 mph 50 % 0 in
15:42 73 °F 53.2 °F 29.9 in WSW 5 mph 16 mph 50 % 0 in
15:52 72.9 °F 53.6 °F 29.9 in West 10 mph 15 mph 51 % 0 in
16:02 72.7 °F 52.9 °F 29.9 in SW 17 mph 17 mph 50 % 0 in
16:12 72.7 °F 54 °F 29.9 in SW 8 mph 17 mph 52 % 0 in
16:17 73 °F 54.3 °F 29.9 in SW 11 mph 17 mph 52 % 0 in
16:22 72.9 °F 54.1 °F 29.9 in SSW 8 mph 17 mph 52 % 0 in
16:32 72.9 °F 54.1 °F 29.9 in SW 7 mph 14 mph 52 % 0 in
16:42 72.9 °F 54.1 °F 29.9 in SSW 7 mph 14 mph 52 % 0 in
16:47 73.2 °F 54.5 °F 29.9 in SW 10 mph 14 mph 52 % 0 in
16:52 73.8 °F 54.5 °F 29.9 in WSW 3 mph 14 mph 51 % 0 in
16:57 73.9 °F 54.7 °F 29.9 in SW 6 mph 13 mph 51 % 0 in
17:02 73.9 °F 54.7 °F 29.9 in WSW 9 mph 13 mph 51 % 0 in
17:07 73.8 °F 54.5 °F 29.9 in SSW 9 mph 15 mph 51 % 0 in
17:12 73.6 °F 54.3 °F 29.9 in SW 5 mph 15 mph 51 % 0 in
17:17 73.8 °F 54.5 °F 29.9 in SW 10 mph 14 mph 51 % 0 in
17:22 73.9 °F 55.2 °F 29.9 in SW 14 mph 14 mph 52 % 0 in
17:27 74.1 °F 54.9 °F 29.9 in WSW 5 mph 15 mph 51 % 0 in
17:32 74.5 °F 55.2 °F 29.9 in SSW 5 mph 15 mph 51 % 0 in
17:37 74.5 °F 54.7 °F 29.9 in SW 7 mph 15 mph 50 % 0 in
17:42 74.5 °F 54.7 °F 29.9 in SW 8 mph 15 mph 50 % 0 in
17:52 74.1 °F 54.9 °F 29.9 in WSW 9 mph 15 mph 51 % 0 in
18:02 74.1 °F 54.9 °F 29.9 in SSW 10 mph 15 mph 51 % 0 in
18:07 74.1 °F 54.9 °F 29.9 in SW 9 mph 15 mph 51 % 0 in
18:12 74.1 °F 55.4 °F 29.9 in SSW 7 mph 15 mph 52 % 0 in
18:17 73.8 °F 55 °F 29.9 in South 6 mph 14 mph 52 % 0 in
18:22 73.8 °F 55 °F 29.9 in South 7 mph 13 mph 52 % 0 in
18:32 73.8 °F 55 °F 29.9 in SSW 6 mph 13 mph 52 % 0 in
18:37 73.8 °F 55.6 °F 29.9 in SSW 6 mph 13 mph 53 % 0 in
18:42 73.8 °F 55.6 °F 29.9 in SE 5 mph 11 mph 53 % 0 in
18:52 73.9 °F 55.8 °F 29.9 in SSE 3 mph 10 mph 53 % 0 in
18:57 73.8 °F 55.6 °F 29.9 in SE 2 mph 9 mph 53 % 0 in
19:02 73.8 °F 55.6 °F 29.9 in ENE 4 mph 9 mph 53 % 0 in
19:12 73.6 °F 55.9 °F 29.9 in South 3 mph 9 mph 54 % 0 in
19:17 73.2 °F 56.1 °F 29.9 in SSW 2 mph 7 mph 55 % 0 in
19:22 73 °F 55.9 °F 29.9 in SSW 3 mph 7 mph 55 % 0 in
19:32 73.2 °F 55.6 °F 29.9 in South 7 mph 9 mph 54 % 0 in
19:37 72.9 °F 55.8 °F 29.9 in SE 5 mph 9 mph 55 % 0 in
19:42 72.7 °F 56.1 °F 29.9 in SSW 5 mph 9 mph 56 % 0 in
19:52 72.3 °F 55.8 °F 29.9 in SW 3 mph 9 mph 56 % 0 in
20:02 73 °F 55.9 °F 29.9 in South 2 mph 9 mph 55 % 0 in
20:12 73.4 °F 55.8 °F 29.9 in SSW 3 mph 8 mph 54 % 0 in
20:17 73.4 °F 55.8 °F 29.9 in South 6 mph 10 mph 54 % 0 in
20:22 73.4 °F 55.8 °F 29.9 in SSW 6 mph 10 mph 54 % 0 in
20:32 73 °F 55.9 °F 29.9 in SSW 8 mph 11 mph 55 % 0 in
20:42 72.9 °F 55.8 °F 29.9 in SW 4 mph 10 mph 55 % 0 in
20:47 72.7 °F 55.6 °F 29.9 in SW 6 mph 9 mph 55 % 0 in
20:52 72.3 °F 55.8 °F 29.9 in SSW 3 mph 9 mph 56 % 0 in
21:02 71.2 °F 55.2 °F 29.9 in SW 7 mph 10 mph 57 % 0 in
21:12 70.5 °F 55.6 °F 29.9 in SW 4 mph 11 mph 59 % 0 in
21:17 70.2 °F 55.6 °F 29.9 in SW 3 mph 9 mph 60 % 0 in
21:22 70 °F 55.9 °F 29.9 in SSE 3 mph 9 mph 61 % 0 in
21:32 69.6 °F 55.6 °F 29.9 in SSW 4 mph 7 mph 61 % 0 in
21:42 69.6 °F 55.6 °F 29.9 in SW 2 mph 6 mph 61 % 0 in
21:47 69.6 °F 55.9 °F 29.9 in South 5 mph 8 mph 62 % 0 in
21:52 69.6 °F 55.9 °F 29.9 in SSW 3 mph 8 mph 62 % 0 in
22:02 69.6 °F 55.9 °F 29.9 in SSW 3 mph 8 mph 62 % 0 in
22:12 69.6 °F 55.9 °F 29.9 in SSW 1 mph 9 mph 62 % 0 in
22:17 69.6 °F 56.5 °F 29.9 in SSW 3 mph 8 mph 63 % 0 in
22:22 69.4 °F 56.3 °F 29.9 in SW 4 mph 8 mph 63 % 0 in
22:32 69.3 °F 56.5 °F 29.9 in SSW 4 mph 7 mph 64 % 0 in
22:37 69.3 °F 56.5 °F 29.9 in SSW 3 mph 7 mph 64 % 0 in
22:42 69.3 °F 56.1 °F 29.9 in SW 4 mph 7 mph 63 % 0 in
22:47 69.4 °F 56.3 °F 29.9 in SW 5 mph 7 mph 63 % 0 in
22:52 69.4 °F 56.3 °F 29.9 in WSW 3 mph 7 mph 63 % 0 in
23:02 68.9 °F 55.8 °F 29.9 in SW 3 mph 8 mph 63 % 0 in
23:07 68.7 °F 55.2 °F 29.9 in SW 6 mph 8 mph 62 % 0 in
23:12 68.5 °F 55 °F 29.9 in WSW 2 mph 8 mph 62 % 0 in
23:17 68.4 °F 54.9 °F 29.9 in WSW 4 mph 8 mph 62 % 0 in
23:22 68.2 °F 54.1 °F 29.9 in SW 2 mph 8 mph 61 % 0 in
23:32 68.2 °F 54.1 °F 29.9 in SW 4 mph 8 mph 61 % 0 in
23:42 68.2 °F 54.1 °F 29.9 in WSW 3 mph 10 mph 61 % 0 in
23:47 68.2 °F 54.1 °F 29.9 in SW 4 mph 13 mph 61 % 0 in
23:52 68.2 °F 53.8 °F 29.9 in West 5 mph 13 mph 60 % 0 in
23:57 68.4 °F 54 °F 29.9 in WSW 7 mph 13 mph 60 % 0 in
Meteo18
Compliments of Weather Underground - 4 mb

Script developed by  Jim McMurry - jmcmurry@mwt.net Adapted for the template by  Wim van der Kuil - Leuven-Template.eu

You find our weather info also at:

European Weather Network

Weather Underground

Equipment we use:

Weather-station
Davis Vue

Weather-program
Meteohub

Weather-server
Raspberry PI 2 B+

Provider
1 and 1

Davis Vue

Meteohub

Raspberry PI 2 B+

1 and 1